createdAt,value
2018-05-10T00:00:04.604Z,21.58
2018-05-10T00:01:04.658Z,21.58
2018-05-10T00:02:04.919Z,21.46
2018-05-10T00:03:04.704Z,21.57
2018-05-10T00:04:04.675Z,21.54
2018-05-10T00:05:05.006Z,21.5
2018-05-10T00:06:05.063Z,21.45
2018-05-10T00:07:05.083Z,21.43
2018-05-10T00:08:05.080Z,21.43
2018-05-10T00:09:04.811Z,21.4
2018-05-10T00:10:04.845Z,21.5
2018-05-10T00:11:04.865Z,21.43
2018-05-10T00:12:04.881Z,21.45
2018-05-10T00:13:05.158Z,21.46
2018-05-10T00:14:05.226Z,21.37
2018-05-10T00:15:05.223Z,21.36
2018-05-10T00:16:05.233Z,21.45
2018-05-10T00:17:05.258Z,21.35
2018-05-10T00:18:05.271Z,21.42
2018-05-10T00:19:05.063Z,21.42
2018-05-10T00:20:05.057Z,21.39
2018-05-10T00:21:05.094Z,21.3
2018-05-10T00:22:05.490Z,21.37
2018-05-10T00:23:05.151Z,21.32
2018-05-10T00:24:05.151Z,21.29
2018-05-10T00:25:05.187Z,21.29
2018-05-10T00:26:05.465Z,21.32
2018-05-10T00:27:05.231Z,21.32
2018-05-10T00:28:05.277Z,21.35
2018-05-10T00:29:05.276Z,21.32
2018-05-10T00:30:05.575Z,21.24
2018-05-10T00:31:05.605Z,21.3
2018-05-10T00:32:05.633Z,21.29
2018-05-10T00:33:05.094Z,21.24
2018-05-10T00:34:05.666Z,21.25
2018-05-10T00:35:05.149Z,21.22
2018-05-10T00:36:05.449Z,21.27
2018-05-10T00:37:05.463Z,21.18
2018-05-10T00:38:05.870Z,21.2
2018-05-10T00:39:05.240Z,21.21
2018-05-10T00:40:05.524Z,21.15
2018-05-10T00:41:05.851Z,21.21
2018-05-10T00:42:05.600Z,21.15
2018-05-10T00:43:05.600Z,21.11
2018-05-10T00:44:05.686Z,21.11
2018-05-10T00:45:05.905Z,21.07
2018-05-10T00:46:05.951Z,21.14
2018-05-10T00:47:05.976Z,21.05
2018-05-10T00:48:06.004Z,21.02
2018-05-10T00:49:06.012Z,20.99
2018-05-10T00:50:05.784Z,21.03
2018-05-10T00:51:06.088Z,20.99
2018-05-10T00:52:06.083Z,20.97
2018-05-10T00:53:06.113Z,21.03
2018-05-10T00:54:05.888Z,20.96
2018-05-10T00:55:05.618Z,20.95
2018-05-10T00:56:06.179Z,20.96
2018-05-10T00:57:06.203Z,20.95
2018-05-10T00:58:06.220Z,20.95
2018-05-10T00:59:05.982Z,20.95
2018-05-10T01:00:06.270Z,20.9
2018-05-10T01:01:06.026Z,20.9
2018-05-10T01:02:05.790Z,20.9
2018-05-10T01:03:06.793Z,20.8
2018-05-10T01:04:06.100Z,20.85
2018-05-10T01:05:06.157Z,20.84
2018-05-10T01:06:06.124Z,20.9
2018-05-10T01:07:06.145Z,20.8
2018-05-10T01:08:06.463Z,20.84
2018-05-10T01:09:06.218Z,20.8
2018-05-10T01:10:06.230Z,20.75
2018-05-10T01:11:06.525Z,20.78
2018-05-10T01:12:06.565Z,20.74
2018-05-10T01:13:06.572Z,20.75
2018-05-10T01:14:06.584Z,20.72
2018-05-10T01:15:06.363Z,20.72
2018-05-10T01:16:06.384Z,20.72
2018-05-10T01:17:06.398Z,20.72
2018-05-10T01:18:06.414Z,20.63
2018-05-10T01:19:06.442Z,20.6
2018-05-10T01:20:06.763Z,20.58
2018-05-10T01:21:06.759Z,20.67
2018-05-10T01:22:06.553Z,20.6
2018-05-10T01:23:06.553Z,20.66
2018-05-10T01:24:06.551Z,20.63
2018-05-10T01:25:06.731Z,20.58
2018-05-10T01:26:06.642Z,20.55
2018-05-10T01:27:06.610Z,20.58
2018-05-10T01:28:06.638Z,20.55
2018-05-10T01:29:06.939Z,20.59
2018-05-10T01:30:06.954Z,20.44
2018-05-10T01:31:06.992Z,20.55
2018-05-10T01:32:07.056Z,20.44
2018-05-10T01:33:06.788Z,20.44
2018-05-10T01:34:07.075Z,20.55
2018-05-10T01:35:06.818Z,20.47
2018-05-10T01:36:07.082Z,20.43
2018-05-10T01:37:07.155Z,20.41
2018-05-10T01:38:06.604Z,20.41
2018-05-10T01:39:06.904Z,20.41
2018-05-10T01:40:06.922Z,20.44
2018-05-10T01:41:07.232Z,20.44
2018-05-10T01:42:07.233Z,20.36
2018-05-10T01:43:06.993Z,20.29
2018-05-10T01:44:07.035Z,20.34
2018-05-10T01:45:06.771Z,20.4
2018-05-10T01:46:07.066Z,20.31
2018-05-10T01:47:07.331Z,20.25
2018-05-10T01:48:07.100Z,20.32
2018-05-10T01:49:07.430Z,20.37
2018-05-10T01:50:07.133Z,20.28
2018-05-10T01:51:07.174Z,20.28
2018-05-10T01:52:07.524Z,20.14
2018-05-10T01:53:07.506Z,20.31
2018-05-10T01:54:07.233Z,20.14
2018-05-10T01:55:07.511Z,20.28
2018-05-10T01:56:07.558Z,20.26
2018-05-10T01:57:07.564Z,20.14
2018-05-10T01:58:07.342Z,20.21
2018-05-10T01:59:07.095Z,20.13
2018-05-10T02:00:07.374Z,20.11
2018-05-10T02:01:07.686Z,20.11
2018-05-10T02:02:07.411Z,20.1
2018-05-10T02:03:07.448Z,20.11
2018-05-10T02:04:07.729Z,20.04
2018-05-10T02:05:07.780Z,20.07
2018-05-10T02:06:07.782Z,20.02
2018-05-10T02:07:07.596Z,20.11
2018-05-10T02:08:07.541Z,20.02
2018-05-10T02:09:07.322Z,20.06
2018-05-10T02:10:07.851Z,20.04
2018-05-10T02:11:07.878Z,20.07
2018-05-10T02:12:07.651Z,20.04
2018-05-10T02:13:07.653Z,19.94
2018-05-10T02:14:07.676Z,20.03
2018-05-10T02:15:07.962Z,20
2018-05-10T02:16:07.746Z,19.92
2018-05-10T02:17:08.029Z,20
2018-05-10T02:18:07.778Z,19.95
2018-05-10T02:19:07.519Z,19.91
2018-05-10T02:20:08.080Z,19.91
2018-05-10T02:21:07.856Z,19.86
2018-05-10T02:22:07.864Z,19.92
2018-05-10T02:23:08.160Z,19.81
2018-05-10T02:24:08.191Z,19.82
2018-05-10T02:25:07.667Z,19.85
2018-05-10T02:26:07.971Z,19.82
2018-05-10T02:27:07.993Z,19.82
2018-05-10T02:28:08.253Z,19.7
2018-05-10T02:29:08.032Z,19.73
2018-05-10T02:30:08.064Z,19.82
2018-05-10T02:31:08.077Z,19.82
2018-05-10T02:32:08.094Z,19.84
2018-05-10T02:33:08.409Z,19.79
2018-05-10T02:34:08.125Z,19.74
2018-05-10T02:35:08.432Z,19.73
2018-05-10T02:36:08.454Z,19.71
2018-05-10T02:37:08.223Z,19.56
2018-05-10T02:38:08.503Z,19.64
2018-05-10T02:39:08.524Z,19.64
2018-05-10T02:40:08.276Z,19.67
2018-05-10T02:41:08.568Z,19.62
2018-05-10T02:42:08.589Z,19.55
2018-05-10T02:43:08.635Z,19.58
2018-05-10T02:44:08.367Z,19.66
2018-05-10T02:45:09.003Z,19.64
2018-05-10T02:46:08.429Z,19.62
2018-05-10T02:47:08.436Z,19.59
2018-05-10T02:48:08.738Z,19.54
2018-05-10T02:49:08.752Z,19.66
2018-05-10T02:50:08.234Z,19.64
2018-05-10T02:51:08.803Z,19.55
2018-05-10T02:52:08.828Z,19.52
2018-05-10T02:53:08.829Z,19.55
2018-05-10T02:54:08.850Z,19.52
2018-05-10T02:55:08.619Z,19.41
2018-05-10T02:56:08.921Z,19.54
2018-05-10T02:57:08.927Z,19.49
2018-05-10T02:58:08.663Z,19.48
2018-05-10T02:59:08.968Z,19.41
2018-05-10T03:00:09.016Z,19.33
2018-05-10T03:01:08.749Z,19.48
2018-05-10T03:02:09.036Z,19.33
2018-05-10T03:03:09.074Z,19.34
2018-05-10T03:04:09.080Z,19.44
2018-05-10T03:05:08.825Z,19.36
2018-05-10T03:06:09.129Z,19.34
2018-05-10T03:07:08.880Z,19.4
2018-05-10T03:08:09.180Z,19.34
2018-05-10T03:09:08.915Z,19.37
2018-05-10T03:10:09.207Z,19.34
2018-05-10T03:11:09.237Z,19.39
2018-05-10T03:12:09.245Z,19.34
2018-05-10T03:13:09.278Z,19.29
2018-05-10T03:14:09.312Z,19.26
2018-05-10T03:15:09.385Z,19.29
2018-05-10T03:16:09.070Z,19.3
2018-05-10T03:17:09.104Z,19.33
2018-05-10T03:18:09.123Z,19.24
2018-05-10T03:19:09.394Z,19.29
2018-05-10T03:20:09.426Z,19.21
2018-05-10T03:21:09.465Z,19.21
2018-05-10T03:22:09.217Z,19.19
2018-05-10T03:23:09.472Z,19.12
2018-05-10T03:24:09.517Z,19.21
2018-05-10T03:25:09.544Z,19.15
2018-05-10T03:26:09.565Z,19.14
2018-05-10T03:27:09.326Z,19.24
2018-05-10T03:28:09.605Z,19.15
2018-05-10T03:29:09.649Z,19.04
2018-05-10T03:30:09.660Z,19.08
2018-05-10T03:31:09.678Z,19.08
2018-05-10T03:32:09.419Z,19.04
2018-05-10T03:33:09.526Z,19.02
2018-05-10T03:34:09.455Z,19
2018-05-10T03:35:09.492Z,19
2018-05-10T03:36:09.501Z,19.02
2018-05-10T03:37:09.816Z,18.93
2018-05-10T03:38:09.804Z,18.93
2018-05-10T03:39:09.837Z,18.96
2018-05-10T03:40:09.590Z,18.96
2018-05-10T03:41:09.892Z,18.92
2018-05-10T03:42:09.653Z,18.9
2018-05-10T03:43:09.660Z,18.96
2018-05-10T03:44:09.420Z,18.96
2018-05-10T03:45:09.970Z,18.93
2018-05-10T03:46:10.001Z,18.98
2018-05-10T03:47:09.753Z,18.96
2018-05-10T03:48:10.045Z,18.86
2018-05-10T03:49:09.806Z,18.93
2018-05-10T03:50:09.821Z,18.93
2018-05-10T03:51:10.104Z,18.88
2018-05-10T03:52:09.851Z,18.92
2018-05-10T03:53:10.197Z,18.9
2018-05-10T03:54:10.151Z,18.86
2018-05-10T03:55:10.222Z,18.86
2018-05-10T03:56:10.254Z,18.84
2018-05-10T03:57:10.238Z,18.93
2018-05-10T03:58:10.272Z,18.86
2018-05-10T03:59:10.281Z,18.84
2018-05-10T04:00:09.772Z,18.83
2018-05-10T04:01:09.789Z,18.81
2018-05-10T04:02:10.080Z,18.83
2018-05-10T04:03:10.097Z,18.83
2018-05-10T04:04:10.376Z,18.84
2018-05-10T04:05:10.134Z,18.77
2018-05-10T04:06:10.332Z,18.86
2018-05-10T04:07:10.444Z,18.78
2018-05-10T04:08:10.489Z,18.77
2018-05-10T04:09:10.513Z,18.8
2018-05-10T04:10:10.501Z,18.77
2018-05-10T04:11:10.547Z,18.74
2018-05-10T04:12:10.552Z,18.78
2018-05-10T04:13:10.346Z,18.71
2018-05-10T04:14:10.653Z,18.74
2018-05-10T04:15:10.356Z,18.74
2018-05-10T04:16:10.481Z,18.8
2018-05-10T04:17:10.659Z,18.83
2018-05-10T04:18:10.703Z,18.7
2018-05-10T04:19:10.726Z,18.73
2018-05-10T04:20:10.466Z,18.74
2018-05-10T04:21:10.740Z,18.65
2018-05-10T04:22:10.511Z,18.73
2018-05-10T04:23:10.796Z,18.75
2018-05-10T04:24:10.561Z,18.71
2018-05-10T04:25:10.648Z,18.7
2018-05-10T04:26:10.866Z,18.71
2018-05-10T04:27:10.900Z,18.63
2018-05-10T04:28:10.623Z,18.65
2018-05-10T04:29:10.922Z,18.71
2018-05-10T04:30:10.673Z,18.65
2018-05-10T04:31:10.686Z,18.7
2018-05-10T04:32:10.984Z,18.65
2018-05-10T04:33:10.741Z,18.59
2018-05-10T04:34:10.766Z,18.68
2018-05-10T04:35:10.774Z,18.7
2018-05-10T04:36:10.809Z,18.73
2018-05-10T04:37:11.184Z,18.73
2018-05-10T04:38:11.134Z,18.74
2018-05-10T04:39:11.140Z,18.71
2018-05-10T04:40:10.893Z,18.7
2018-05-10T04:41:11.180Z,18.62
2018-05-10T04:42:11.235Z,18.66
2018-05-10T04:43:11.218Z,18.73
2018-05-10T04:44:10.999Z,18.71
2018-05-10T04:45:11.349Z,18.65
2018-05-10T04:46:11.279Z,18.63
2018-05-10T04:47:11.330Z,18.63
2018-05-10T04:48:11.081Z,18.59
2018-05-10T04:49:11.071Z,18.65
2018-05-10T04:50:11.376Z,18.68
2018-05-10T04:51:11.131Z,18.63
2018-05-10T04:52:10.880Z,18.71
2018-05-10T04:53:11.176Z,18.68
2018-05-10T04:54:11.211Z,18.73
2018-05-10T04:55:11.503Z,18.73
2018-05-10T04:56:11.234Z,18.73
2018-05-10T04:57:11.527Z,18.74
2018-05-10T04:58:11.274Z,18.71
2018-05-10T04:59:11.567Z,18.68
2018-05-10T05:00:11.595Z,18.65
2018-05-10T05:01:11.615Z,18.7
2018-05-10T05:02:11.635Z,18.65
2018-05-10T05:03:11.401Z,18.73
2018-05-10T05:04:11.718Z,18.74
2018-05-10T05:05:11.701Z,18.68
2018-05-10T05:06:11.184Z,18.62
2018-05-10T05:07:11.206Z,18.66
2018-05-10T05:08:11.762Z,18.68
2018-05-10T05:09:11.936Z,18.73
2018-05-10T05:10:11.805Z,18.73
2018-05-10T05:11:11.823Z,18.62
2018-05-10T05:12:11.844Z,18.7
2018-05-10T05:13:11.866Z,18.7
2018-05-10T05:14:11.921Z,18.71
2018-05-10T05:15:11.914Z,18.7
2018-05-10T05:16:11.937Z,18.66
2018-05-10T05:17:11.947Z,18.68
2018-05-10T05:18:11.447Z,18.71
2018-05-10T05:19:12.035Z,18.71
2018-05-10T05:20:12.026Z,18.75
2018-05-10T05:21:12.043Z,18.7
2018-05-10T05:22:11.784Z,18.73
2018-05-10T05:23:12.070Z,18.8
2018-05-10T05:24:11.851Z,18.77
2018-05-10T05:25:12.108Z,18.75
2018-05-10T05:26:11.890Z,18.78
2018-05-10T05:27:12.172Z,18.75
2018-05-10T05:28:12.187Z,18.75
2018-05-10T05:29:12.225Z,18.73
2018-05-10T05:30:11.985Z,18.78
2018-05-10T05:31:11.720Z,18.75
2018-05-10T05:32:12.292Z,18.84
2018-05-10T05:33:12.044Z,18.78
2018-05-10T05:34:12.042Z,18.81
2018-05-10T05:35:12.322Z,18.8
2018-05-10T05:36:12.378Z,18.78
2018-05-10T05:37:12.112Z,18.89
2018-05-10T05:38:12.148Z,18.8
2018-05-10T05:39:12.420Z,18.8
2018-05-10T05:40:12.197Z,18.93
2018-05-10T05:41:12.827Z,18.84
2018-05-10T05:42:12.489Z,18.84
2018-05-10T05:43:12.578Z,18.89
2018-05-10T05:44:12.246Z,18.93
2018-05-10T05:45:12.282Z,18.92
2018-05-10T05:46:12.581Z,18.92
2018-05-10T05:47:12.329Z,18.88
2018-05-10T05:48:12.612Z,18.9
2018-05-10T05:49:12.627Z,18.95
2018-05-10T05:50:12.671Z,18.92
2018-05-10T05:51:12.473Z,18.9
2018-05-10T05:52:12.689Z,18.95
2018-05-10T05:53:12.715Z,18.88
2018-05-10T05:54:12.476Z,18.99
2018-05-10T05:55:12.928Z,18.95
2018-05-10T05:56:12.503Z,19
2018-05-10T05:57:12.824Z,18.93
2018-05-10T05:58:12.579Z,18.99
2018-05-10T05:59:12.583Z,18.93
2018-05-10T06:00:12.599Z,19.07
2018-05-10T06:01:12.608Z,19.08
2018-05-10T06:02:12.680Z,19.02
2018-05-10T06:03:12.675Z,19.09
2018-05-10T06:04:12.675Z,19.07
2018-05-10T06:05:12.992Z,19.09
2018-05-10T06:06:12.718Z,19.04
2018-05-10T06:07:13.045Z,19.16
2018-05-10T06:08:13.038Z,19.16
2018-05-10T06:09:13.061Z,19.19
2018-05-10T06:10:12.548Z,19.21
2018-05-10T06:11:13.108Z,19.21
2018-05-10T06:12:13.144Z,19.3
2018-05-10T06:13:12.955Z,19.29
2018-05-10T06:14:13.185Z,19.24
2018-05-10T06:15:13.183Z,19.26
2018-05-10T06:16:13.224Z,19.34
2018-05-10T06:17:12.986Z,19.34
2018-05-10T06:18:12.719Z,19.45
2018-05-10T06:19:13.283Z,19.34
2018-05-10T06:20:13.319Z,19.47
2018-05-10T06:21:13.343Z,19.41
2018-05-10T06:22:13.069Z,19.47
2018-05-10T06:23:12.823Z,19.45
2018-05-10T06:24:13.371Z,19.56
2018-05-10T06:25:13.892Z,19.56
2018-05-10T06:26:13.449Z,19.55
2018-05-10T06:27:13.204Z,19.55
2018-05-10T06:28:13.479Z,19.56
2018-05-10T06:29:13.225Z,19.71
2018-05-10T06:30:13.519Z,19.62
2018-05-10T06:31:13.254Z,19.59
2018-05-10T06:32:13.561Z,19.59
2018-05-10T06:33:13.601Z,19.73
2018-05-10T06:34:13.611Z,19.74
2018-05-10T06:35:13.368Z,19.81
2018-05-10T06:36:13.668Z,19.73
2018-05-10T06:37:13.685Z,19.71
2018-05-10T06:38:13.688Z,19.79
2018-05-10T06:39:13.441Z,19.88
2018-05-10T06:40:13.474Z,19.77
2018-05-10T06:41:13.557Z,19.86
2018-05-10T06:42:13.765Z,19.82
2018-05-10T06:43:13.818Z,19.94
2018-05-10T06:44:13.829Z,19.94
2018-05-10T06:45:13.854Z,19.99
2018-05-10T06:46:13.880Z,20.04
2018-05-10T06:47:13.627Z,20.07
2018-05-10T06:48:13.910Z,20.11
2018-05-10T06:49:13.946Z,20.13
2018-05-10T06:50:13.672Z,20.14
2018-05-10T06:51:13.988Z,20.16
2018-05-10T06:52:13.988Z,20.11
2018-05-10T06:53:14.025Z,20.26
2018-05-10T06:54:13.758Z,20.31
2018-05-10T06:55:14.105Z,20.36
2018-05-10T06:56:13.781Z,20.32
2018-05-10T06:57:13.847Z,20.37
2018-05-10T06:58:13.840Z,20.31
2018-05-10T06:59:13.911Z,20.28
2018-05-10T07:00:14.277Z,20.44
2018-05-10T07:01:14.292Z,20.47
2018-05-10T07:02:13.945Z,20.41
2018-05-10T07:03:14.241Z,20.56
2018-05-10T07:04:14.240Z,20.59
2018-05-10T07:05:14.331Z,20.63
2018-05-10T07:06:14.295Z,20.62
2018-05-10T07:07:14.338Z,20.7
2018-05-10T07:08:14.339Z,20.84
2018-05-10T07:09:14.111Z,20.85
2018-05-10T07:10:14.451Z,20.93
2018-05-10T07:11:14.405Z,20.95
2018-05-10T07:12:14.415Z,20.97
2018-05-10T07:13:14.437Z,21.11
2018-05-10T07:14:14.475Z,21.21
2018-05-10T07:15:14.485Z,21.21
2018-05-10T07:16:14.518Z,21.35
2018-05-10T07:17:14.542Z,21.42
2018-05-10T07:18:14.027Z,21.43
2018-05-10T07:19:14.661Z,21.48
2018-05-10T07:20:14.354Z,21.55
2018-05-10T07:21:14.639Z,21.6
2018-05-10T07:22:14.657Z,21.69
2018-05-10T07:23:14.682Z,21.77
2018-05-10T07:24:14.721Z,21.88
2018-05-10T07:25:15.079Z,21.89
2018-05-10T07:26:14.214Z,21.92
2018-05-10T07:27:14.773Z,22.06
2018-05-10T07:28:14.246Z,22.07
2018-05-10T07:29:14.830Z,22.06
2018-05-10T07:30:14.856Z,22.13
2018-05-10T07:31:14.842Z,22.26
2018-05-10T07:32:14.613Z,22.28
2018-05-10T07:33:14.886Z,22.32
2018-05-10T07:34:14.902Z,22.45
2018-05-10T07:35:14.995Z,22.39
2018-05-10T07:36:14.687Z,22.45
2018-05-10T07:37:14.989Z,22.55
2018-05-10T07:38:14.741Z,22.63
2018-05-10T07:39:15.037Z,22.7
2018-05-10T07:40:14.803Z,22.8
2018-05-10T07:41:15.065Z,22.87
2018-05-10T07:42:15.332Z,22.94
2018-05-10T07:43:14.843Z,22.99
2018-05-10T07:44:14.878Z,23.09
2018-05-10T07:45:15.164Z,23.18
2018-05-10T07:46:14.907Z,23.27
2018-05-10T07:47:14.757Z,23.2
2018-05-10T07:48:15.242Z,23.32
2018-05-10T07:49:15.263Z,23.36
2018-05-10T07:50:15.341Z,23.46
2018-05-10T07:51:15.324Z,23.54
2018-05-10T07:52:15.054Z,23.71
2018-05-10T07:53:15.280Z,23.73
2018-05-10T07:54:15.112Z,23.76
2018-05-10T07:55:15.430Z,23.76
2018-05-10T07:56:15.426Z,23.91
2018-05-10T07:57:15.168Z,23.87
2018-05-10T07:58:15.476Z,23.91
2018-05-10T07:59:15.496Z,23.99
2018-05-10T08:00:15.528Z,24.08
2018-05-10T08:01:15.530Z,24.13
2018-05-10T08:02:15.757Z,24.2
2018-05-10T08:03:15.587Z,24.23
2018-05-10T08:04:15.610Z,24.36
2018-05-10T08:05:15.377Z,24.36
2018-05-10T08:06:15.657Z,24.42
2018-05-10T08:07:15.393Z,24.55
2018-05-10T08:08:15.701Z,24.53
2018-05-10T08:09:15.745Z,24.54
2018-05-10T08:10:16.029Z,24.65
2018-05-10T08:11:15.781Z,24.63
2018-05-10T08:12:15.513Z,24.74
2018-05-10T08:13:15.806Z,24.77
2018-05-10T08:14:15.851Z,24.74
2018-05-10T08:15:15.881Z,24.89
2018-05-10T08:16:15.358Z,24.84
2018-05-10T08:17:16.164Z,25.01
2018-05-10T08:18:15.943Z,24.99
2018-05-10T08:19:15.967Z,25.1
2018-05-10T08:20:15.984Z,25.18
2018-05-10T08:21:16.027Z,25.22
2018-05-10T08:22:16.030Z,25.33
2018-05-10T08:23:16.059Z,25.44
2018-05-10T08:24:16.302Z,25.47
2018-05-10T08:25:15.856Z,25.54
2018-05-10T08:26:16.147Z,25.54
2018-05-10T08:27:16.172Z,25.58
2018-05-10T08:28:15.644Z,25.62
2018-05-10T08:29:15.945Z,25.65
2018-05-10T08:30:15.803Z,25.72
2018-05-10T08:31:16.037Z,25.8
2018-05-10T08:32:16.268Z,25.9
2018-05-10T08:33:15.778Z,25.91
2018-05-10T08:34:16.327Z,25.98
2018-05-10T08:35:16.349Z,26.1
2018-05-10T08:36:16.385Z,26.23
2018-05-10T08:37:16.406Z,26.23
2018-05-10T08:38:15.889Z,26.26
2018-05-10T08:39:16.190Z,26.45
2018-05-10T08:40:16.495Z,26.51
2018-05-10T08:41:16.567Z,26.6
2018-05-10T08:42:16.520Z,26.6
2018-05-10T08:43:16.285Z,26.77
2018-05-10T08:44:16.315Z,26.81
2018-05-10T08:45:16.621Z,26.88
2018-05-10T08:46:16.405Z,26.92
2018-05-10T08:47:16.662Z,27.05
2018-05-10T08:48:16.683Z,27.02
2018-05-10T08:49:16.434Z,27.14
2018-05-10T08:50:16.437Z,27.27
2018-05-10T08:51:16.749Z,27.37
2018-05-10T08:52:16.501Z,27.36
2018-05-10T08:53:16.538Z,27.51
2018-05-10T08:54:16.838Z,27.51
2018-05-10T08:55:16.584Z,27.63
2018-05-10T08:56:16.933Z,27.68
2018-05-10T08:57:16.651Z,27.73
2018-05-10T08:58:16.912Z,27.7
2018-05-10T08:59:16.951Z,27.82
2018-05-10T09:00:16.987Z,27.82
2018-05-10T09:01:17.071Z,27.95
2018-05-10T09:02:17.043Z,27.9
2018-05-10T09:03:16.782Z,27.9
2018-05-10T09:04:17.076Z,27.96
2018-05-10T09:05:17.101Z,28.08
2018-05-10T09:06:16.846Z,27.93
2018-05-10T09:07:16.891Z,28.04
2018-05-10T09:08:17.166Z,28.1
2018-05-10T09:09:17.210Z,28.11
2018-05-10T09:10:17.252Z,28.07
2018-05-10T09:11:17.357Z,28.14
2018-05-10T09:12:17.285Z,28.2
2018-05-10T09:13:16.756Z,28.27
2018-05-10T09:14:17.048Z,28.23
2018-05-10T09:15:17.082Z,28.26
2018-05-10T09:16:17.101Z,28.27
2018-05-10T09:17:17.129Z,28.32
2018-05-10T09:18:17.434Z,28.35
2018-05-10T09:19:17.455Z,28.38
2018-05-10T09:20:17.387Z,28.39
2018-05-10T09:21:17.238Z,28.47
2018-05-10T09:22:17.275Z,28.51
2018-05-10T09:23:17.319Z,28.42
2018-05-10T09:24:17.321Z,28.56
2018-05-10T09:25:17.379Z,28.54
2018-05-10T09:26:17.653Z,28.63
2018-05-10T09:27:17.676Z,28.63
2018-05-10T09:28:17.719Z,28.67
2018-05-10T09:29:17.745Z,28.66
2018-05-10T09:30:17.759Z,28.78
2018-05-10T09:31:17.782Z,28.78
2018-05-10T09:32:17.815Z,28.86
2018-05-10T09:33:17.572Z,28.85
2018-05-10T09:34:17.870Z,28.97
2018-05-10T09:35:17.890Z,29.05
2018-05-10T09:36:17.918Z,29.05
2018-05-10T09:37:17.924Z,29.1
2018-05-10T09:38:17.698Z,29.1
2018-05-10T09:39:18.187Z,29.16
2018-05-10T09:40:18.010Z,29.22
2018-05-10T09:41:17.796Z,29.2
2018-05-10T09:42:18.069Z,29.2
2018-05-10T09:43:18.101Z,29.31
2018-05-10T09:44:17.849Z,29.35
2018-05-10T09:45:17.889Z,29.45
2018-05-10T09:46:18.409Z,29.45
2018-05-10T09:47:17.931Z,29.59
2018-05-10T09:48:18.232Z,29.6
2018-05-10T09:49:18.008Z,29.72
2018-05-10T09:50:18.014Z,29.68
2018-05-10T09:51:18.333Z,29.75
2018-05-10T09:52:18.087Z,29.76
2018-05-10T09:53:18.096Z,29.82
2018-05-10T09:54:18.129Z,29.79
2018-05-10T09:55:18.443Z,29.95
2018-05-10T09:56:18.469Z,29.97
2018-05-10T09:57:18.466Z,30.02
2018-05-10T09:58:18.502Z,30.08
2018-05-10T09:59:18.529Z,30.15
2018-05-10T10:00:18.594Z,30.08
2018-05-10T10:01:18.585Z,30.21
2018-05-10T10:02:18.691Z,30.18
2018-05-10T10:03:18.646Z,30.27
2018-05-10T10:04:18.695Z,30.32
2018-05-10T10:05:18.706Z,30.35
2018-05-10T10:06:18.970Z,30.48
2018-05-10T10:07:18.777Z,30.5
2018-05-10T10:08:18.519Z,30.53
2018-05-10T10:09:18.282Z,30.69
2018-05-10T10:10:18.582Z,30.75
2018-05-10T10:11:18.882Z,30.75
2018-05-10T10:12:18.416Z,30.69
2018-05-10T10:13:18.936Z,30.87
2018-05-10T10:14:18.952Z,30.84
2018-05-10T10:15:18.977Z,30.9
2018-05-10T10:16:19.029Z,30.87
2018-05-10T10:17:19.062Z,31
2018-05-10T10:18:18.530Z,30.99
2018-05-10T10:19:18.910Z,31.07
2018-05-10T10:20:18.876Z,31.07
2018-05-10T10:21:19.158Z,31.1
2018-05-10T10:22:18.923Z,31.12
2018-05-10T10:23:18.671Z,31.17
2018-05-10T10:24:18.968Z,31.22
2018-05-10T10:25:19.576Z,31.2
2018-05-10T10:26:19.309Z,31.22
2018-05-10T10:27:19.439Z,31.24
2018-05-10T10:28:19.350Z,31.31
2018-05-10T10:29:19.116Z,31.33
2018-05-10T10:30:19.421Z,31.27
2018-05-10T10:31:19.468Z,31.29
2018-05-10T10:32:19.353Z,31.4
2018-05-10T10:33:19.235Z,31.4
2018-05-10T10:34:19.249Z,31.43
2018-05-10T10:35:19.564Z,31.29
2018-05-10T10:36:19.569Z,31.37
2018-05-10T10:37:19.689Z,31.39
2018-05-10T10:38:19.214Z,31.4
2018-05-10T10:39:19.409Z,31.39
2018-05-10T10:40:19.776Z,31.51
2018-05-10T10:41:19.736Z,31.47
2018-05-10T10:42:19.759Z,31.49
2018-05-10T10:43:19.816Z,31.54
2018-05-10T10:44:19.571Z,31.59
2018-05-10T10:45:19.856Z,31.62
2018-05-10T10:46:19.884Z,31.7
2018-05-10T10:47:19.382Z,31.78
2018-05-10T10:48:19.923Z,31.77
2018-05-10T10:49:19.955Z,31.8
2018-05-10T10:50:19.738Z,31.87
2018-05-10T10:51:20.049Z,31.9
2018-05-10T10:52:20.061Z,31.96
2018-05-10T10:53:20.074Z,31.94
2018-05-10T10:54:20.156Z,31.99
2018-05-10T10:55:20.136Z,32.01
2018-05-10T10:56:20.225Z,32.07
2018-05-10T10:57:19.937Z,32.11
2018-05-10T10:58:20.009Z,32.03
2018-05-10T10:59:20.277Z,32.12
2018-05-10T11:00:20.299Z,32.12
2018-05-10T11:01:20.050Z,32.16
2018-05-10T11:02:20.512Z,32.18
2018-05-10T11:03:20.413Z,32.16
2018-05-10T11:04:20.440Z,32.27
2018-05-10T11:05:20.188Z,32.33
2018-05-10T11:06:20.471Z,32.34
2018-05-10T11:07:20.219Z,32.46
2018-05-10T11:08:20.251Z,32.49
2018-05-10T11:09:20.655Z,32.45
2018-05-10T11:10:20.591Z,32.51
2018-05-10T11:11:20.363Z,32.59
2018-05-10T11:12:20.672Z,32.63
2018-05-10T11:13:20.695Z,32.67
2018-05-10T11:14:20.705Z,32.68
2018-05-10T11:15:20.756Z,32.74
2018-05-10T11:16:20.506Z,32.8
2018-05-10T11:17:20.809Z,32.83
2018-05-10T11:18:20.847Z,32.87
2018-05-10T11:19:20.901Z,32.92
2018-05-10T11:20:20.899Z,33.05
2018-05-10T11:21:20.379Z,33.07
2018-05-10T11:22:20.673Z,33.01
2018-05-10T11:23:20.978Z,33.14
2018-05-10T11:24:21.035Z,33.09
2018-05-10T11:25:21.051Z,33.15
2018-05-10T11:26:21.091Z,33.27
2018-05-10T11:27:20.992Z,33.3
2018-05-10T11:28:21.135Z,33.4
2018-05-10T11:29:20.895Z,33.39
2018-05-10T11:30:20.925Z,33.32
2018-05-10T11:31:21.238Z,33.43
2018-05-10T11:32:20.988Z,33.52
2018-05-10T11:33:21.206Z,33.45
2018-05-10T11:34:21.152Z,33.59
2018-05-10T11:35:21.349Z,33.61
2018-05-10T11:36:21.305Z,33.67
2018-05-10T11:37:21.219Z,33.65
2018-05-10T11:38:21.447Z,33.77
2018-05-10T11:39:21.492Z,33.71
2018-05-10T11:40:21.244Z,33.8
2018-05-10T11:41:21.527Z,33.8
2018-05-10T11:42:21.580Z,33.87
2018-05-10T11:43:21.612Z,33.9
2018-05-10T11:44:21.637Z,33.95
2018-05-10T11:45:21.661Z,33.96
2018-05-10T11:46:21.681Z,34.05
2018-05-10T11:47:21.732Z,34.01
2018-05-10T11:48:21.828Z,34.13
2018-05-10T11:49:21.809Z,34.14
2018-05-10T11:50:21.822Z,34.23
2018-05-10T11:51:21.855Z,34.27
2018-05-10T11:52:21.341Z,34.29
2018-05-10T11:53:21.897Z,34.4
2018-05-10T11:54:21.665Z,34.35
2018-05-10T11:55:21.737Z,34.43
2018-05-10T11:56:22.010Z,34.45
2018-05-10T11:57:22.166Z,34.6
2018-05-10T11:58:22.071Z,34.51
2018-05-10T11:59:21.839Z,34.7
2018-05-10T12:00:22.146Z,34.67
2018-05-10T12:01:22.177Z,34.67
2018-05-10T12:02:22.178Z,34.77
2018-05-10T12:03:22.222Z,34.66
2018-05-10T12:04:21.986Z,34.67
2018-05-10T12:05:22.281Z,34.8
2018-05-10T12:06:22.332Z,34.88
2018-05-10T12:07:22.368Z,34.93
2018-05-10T12:08:22.378Z,34.86
2018-05-10T12:09:22.142Z,34.88
2018-05-10T12:10:22.464Z,34.9
2018-05-10T12:11:22.492Z,34.86
2018-05-10T12:12:22.236Z,34.9
2018-05-10T12:13:22.573Z,34.93
2018-05-10T12:14:22.566Z,34.95
2018-05-10T12:15:22.623Z,34.88
2018-05-10T12:16:22.622Z,34.96
2018-05-10T12:17:22.692Z,35.07
2018-05-10T12:18:22.722Z,35
2018-05-10T12:19:22.624Z,34.96
2018-05-10T12:20:22.622Z,35.08
2018-05-10T12:21:22.266Z,35.04
2018-05-10T12:22:22.833Z,35.12
2018-05-10T12:23:22.589Z,35.04
2018-05-10T12:24:22.365Z,35.07
2018-05-10T12:25:22.663Z,35.04
2018-05-10T12:26:22.978Z,35.08
2018-05-10T12:27:22.437Z,35.05
2018-05-10T12:28:23.035Z,35.11
2018-05-10T12:29:23.044Z,35.08
2018-05-10T12:30:22.652Z,35.08
2018-05-10T12:31:23.127Z,35.08
2018-05-10T12:32:23.153Z,35.14
2018-05-10T12:33:23.190Z,35.1
2018-05-10T12:34:23.218Z,35.15
2018-05-10T12:35:22.697Z,35.14
2018-05-10T12:36:23.010Z,34.97
2018-05-10T12:37:23.356Z,35.1
2018-05-10T12:38:23.080Z,35.12
2018-05-10T12:39:23.363Z,35.12
2018-05-10T12:40:23.154Z,35.07
2018-05-10T12:41:22.917Z,35.07
2018-05-10T12:42:23.495Z,35.04
2018-05-10T12:43:22.972Z,35.04
2018-05-10T12:44:23.546Z,35.02
2018-05-10T12:45:23.305Z,35
2018-05-10T12:46:23.616Z,35.02
2018-05-10T12:47:23.654Z,35.02
2018-05-10T12:48:23.385Z,35.05
2018-05-10T12:49:23.154Z,35.11
2018-05-10T12:50:23.739Z,35.1
2018-05-10T12:51:23.790Z,35.17
2018-05-10T12:52:23.534Z,35.15
2018-05-10T12:53:23.841Z,35.26
2018-05-10T12:54:23.889Z,35.18
2018-05-10T12:55:23.913Z,35.29
2018-05-10T12:56:23.440Z,35.29